createdAt,value
2022-11-03T00:01:51.038Z,13.90
2022-11-03T00:04:20.990Z,14.10
2022-11-03T00:06:51.504Z,14.10
2022-11-03T00:09:21.469Z,14.20
2022-11-03T00:11:52.587Z,14.20
2022-11-03T00:14:22.671Z,14.20
2022-11-03T00:16:50.653Z,14.20
2022-11-03T00:19:19.148Z,14.10
2022-11-03T00:21:47.766Z,14.00
2022-11-03T00:24:15.938Z,14.20
2022-11-03T00:26:44.078Z,14.10
2022-11-03T00:29:14.113Z,14.20
2022-11-03T00:31:45.140Z,14.00
2022-11-03T00:34:13.734Z,13.70
2022-11-03T00:36:43.732Z,14.00
2022-11-03T00:39:13.155Z,13.80
2022-11-03T00:41:41.771Z,14.00
2022-11-03T00:44:11.001Z,14.00
2022-11-03T00:46:40.079Z,14.00
2022-11-03T00:49:09.409Z,14.30
2022-11-03T00:51:37.782Z,13.90
2022-11-03T00:54:07.197Z,13.50
2022-11-03T00:56:40.335Z,13.90
2022-11-03T00:59:10.611Z,13.90
2022-11-03T01:01:45.940Z,13.70
2022-11-03T01:04:37.415Z,13.90
2022-11-03T01:07:09.480Z,13.90
2022-11-03T01:09:39.116Z,13.90
2022-11-03T01:12:11.828Z,13.90
2022-11-03T01:14:41.392Z,14.00
2022-11-03T01:17:12.842Z,14.00
2022-11-03T01:19:42.338Z,14.20
2022-11-03T01:22:11.662Z,13.80
2022-11-03T01:24:41.537Z,14.20
2022-11-03T01:27:10.350Z,14.10
2022-11-03T01:29:38.354Z,14.00
2022-11-03T01:32:31.579Z,14.10
2022-11-03T01:35:02.514Z,14.20
2022-11-03T01:37:30.590Z,13.90
2022-11-03T01:40:00.200Z,13.80
2022-11-03T01:42:29.154Z,13.90
2022-11-03T01:44:57.130Z,14.10
2022-11-03T01:47:30.088Z,14.10
2022-11-03T01:50:07.033Z,13.90
2022-11-03T01:52:38.138Z,13.70
2022-11-03T01:55:11.510Z,14.10
2022-11-03T01:57:45.673Z,13.90
2022-11-03T02:00:16.062Z,13.90
2022-11-03T02:02:45.735Z,13.80
2022-11-03T02:05:17.718Z,13.50
2022-11-03T02:07:54.177Z,13.70
2022-11-03T02:10:23.229Z,13.60
2022-11-03T02:12:52.067Z,13.50
2022-11-03T02:15:22.469Z,13.60
2022-11-03T02:17:53.772Z,13.40
2022-11-03T02:20:26.151Z,13.40
2022-11-03T02:23:14.329Z,13.30
2022-11-03T02:25:49.129Z,13.50
2022-11-03T02:28:20.097Z,13.50
2022-11-03T02:30:58.628Z,13.70
2022-11-03T02:33:38.308Z,13.40
2022-11-03T02:36:13.438Z,13.80
2022-11-03T02:38:48.021Z,13.80
2022-11-03T02:41:21.287Z,13.80
2022-11-03T02:43:51.179Z,13.90
2022-11-03T02:46:20.402Z,13.80
2022-11-03T02:48:51.526Z,13.30
2022-11-03T02:51:19.633Z,13.20
2022-11-03T02:53:57.649Z,13.40
2022-11-03T02:56:27.067Z,13.40
2022-11-03T02:59:01.737Z,13.60
2022-11-03T03:01:37.081Z,13.20
2022-11-03T03:04:10.664Z,13.40
2022-11-03T03:06:45.097Z,13.60
2022-11-03T03:09:20.115Z,13.70
2022-11-03T03:11:52.440Z,13.70
2022-11-03T03:14:26.136Z,13.60
2022-11-03T03:17:01.030Z,13.30
2022-11-03T03:19:42.293Z,13.50
2022-11-03T03:22:17.809Z,13.40
2022-11-03T03:24:52.633Z,13.30
2022-11-03T03:27:26.145Z,13.30
2022-11-03T03:29:58.961Z,13.30
2022-11-03T03:32:29.552Z,13.60
2022-11-03T03:35:00.146Z,13.50
2022-11-03T03:37:30.847Z,13.80
2022-11-03T03:40:04.186Z,13.70
2022-11-03T03:42:37.926Z,13.70
2022-11-03T03:45:09.583Z,13.90
2022-11-03T03:47:39.070Z,13.90
2022-11-03T03:50:07.768Z,13.70
2022-11-03T03:52:37.077Z,13.70
2022-11-03T03:55:08.621Z,13.70
2022-11-03T03:57:39.000Z,13.70
2022-11-03T04:00:09.029Z,13.70
2022-11-03T04:02:40.961Z,13.70
2022-11-03T04:05:09.133Z,13.80
2022-11-03T04:07:52.006Z,13.30
2022-11-03T04:10:22.752Z,13.10
2022-11-03T04:13:10.611Z,13.20
2022-11-03T04:15:56.018Z,13.60
2022-11-03T04:18:43.459Z,13.70
2022-11-03T04:21:38.860Z,13.90
2022-11-03T04:24:07.834Z,13.80
2022-11-03T04:26:36.875Z,14.00
2022-11-03T04:29:11.165Z,14.00
2022-11-03T04:31:39.211Z,14.00
2022-11-03T04:34:16.477Z,13.80
2022-11-03T04:36:44.476Z,13.40
2022-11-03T04:39:21.158Z,13.60
2022-11-03T04:41:51.169Z,13.80
2022-11-03T04:44:20.586Z,13.90
2022-11-03T04:46:48.786Z,13.60
2022-11-03T04:49:23.676Z,13.60
2022-11-03T04:51:52.171Z,13.70
2022-11-03T04:54:25.221Z,13.50
2022-11-03T04:56:53.775Z,13.70
2022-11-03T04:59:24.324Z,13.40
2022-11-03T05:01:53.197Z,13.30
2022-11-03T05:04:23.137Z,13.60
2022-11-03T05:06:53.903Z,13.80
2022-11-03T05:09:29.160Z,13.70
2022-11-03T05:11:59.597Z,13.40
2022-11-03T05:14:32.117Z,13.80
2022-11-03T05:17:03.534Z,13.60
2022-11-03T05:19:35.357Z,13.40
2022-11-03T05:22:06.162Z,13.70
2022-11-03T05:24:36.705Z,13.50
2022-11-03T05:27:07.296Z,13.80
2022-11-03T05:29:39.005Z,13.80
2022-11-03T05:32:13.718Z,14.00
2022-11-03T05:34:44.553Z,14.10
2022-11-03T05:37:27.067Z,13.80
2022-11-03T05:39:58.925Z,13.50
2022-11-03T05:42:35.973Z,13.50
2022-11-03T05:45:17.098Z,13.70
2022-11-03T05:47:46.064Z,13.80
2022-11-03T05:50:21.055Z,13.70
2022-11-03T05:52:54.184Z,13.40
2022-11-03T05:55:32.495Z,13.40
2022-11-03T05:58:02.157Z,13.70
2022-11-03T06:00:36.643Z,13.80
2022-11-03T06:03:05.914Z,13.70
2022-11-03T06:05:35.900Z,13.80
2022-11-03T06:08:18.865Z,13.80
2022-11-03T06:10:50.993Z,13.80
2022-11-03T06:13:21.701Z,13.90
2022-11-03T06:15:56.177Z,13.90
2022-11-03T06:18:26.753Z,14.10
2022-11-03T06:20:59.632Z,14.10
2022-11-03T06:23:28.384Z,13.70
2022-11-03T06:25:57.545Z,14.00
2022-11-03T06:28:31.324Z,14.00
2022-11-03T06:31:00.896Z,13.90
2022-11-03T06:33:32.422Z,13.90
2022-11-03T06:36:12.518Z,13.90
2022-11-03T06:38:44.246Z,13.90
2022-11-03T06:41:19.214Z,14.10
2022-11-03T06:43:47.307Z,14.40
2022-11-03T06:46:22.169Z,14.40
2022-11-03T06:48:52.262Z,14.00
2022-11-03T06:51:23.239Z,14.10
2022-11-03T06:53:54.820Z,14.30
2022-11-03T06:56:24.590Z,13.90
2022-11-03T06:58:55.376Z,14.00
2022-11-03T07:01:27.894Z,14.20
2022-11-03T07:04:06.243Z,14.10
2022-11-03T07:06:37.516Z,14.00
2022-11-03T07:09:10.687Z,14.20
2022-11-03T07:11:44.679Z,14.20
2022-11-03T07:14:16.204Z,14.10
2022-11-03T07:16:48.301Z,14.20
2022-11-03T07:19:25.845Z,14.20
2022-11-03T07:21:56.505Z,14.30
2022-11-03T07:24:30.279Z,14.40
2022-11-03T07:27:02.750Z,14.30
2022-11-03T07:29:34.706Z,13.90
2022-11-03T07:32:11.188Z,13.90
2022-11-03T07:34:39.996Z,14.00
2022-11-03T07:37:15.724Z,14.40
2022-11-03T07:39:43.791Z,14.30
2022-11-03T07:42:19.652Z,14.10
2022-11-03T07:44:49.058Z,14.00
2022-11-03T07:47:21.814Z,14.10
2022-11-03T07:49:49.970Z,14.00
2022-11-03T07:52:24.253Z,14.10
2022-11-03T07:54:56.826Z,14.10
2022-11-03T07:57:30.316Z,14.20
2022-11-03T08:00:10.361Z,14.40
2022-11-03T08:02:50.046Z,14.10
2022-11-03T08:07:47.587Z,14.40
2022-11-03T08:10:16.178Z,14.10
2022-11-03T08:12:44.926Z,13.80
2022-11-03T08:15:13.000Z,14.00
2022-11-03T08:17:42.269Z,13.80
2022-11-03T08:20:12.899Z,14.00
2022-11-03T08:22:49.814Z,14.30
2022-11-03T08:25:31.254Z,14.30
2022-11-03T08:28:03.907Z,14.50
2022-11-03T08:30:33.904Z,14.90
2022-11-03T08:33:02.606Z,14.80
2022-11-03T08:35:34.036Z,14.50
2022-11-03T08:38:02.342Z,14.30
2022-11-03T08:40:30.316Z,14.40
2022-11-03T08:42:59.162Z,14.60
2022-11-03T08:45:29.277Z,14.30
2022-11-03T08:47:57.966Z,14.30
2022-11-03T08:50:26.020Z,14.20
2022-11-03T08:52:55.368Z,14.20
2022-11-03T08:55:23.341Z,14.00
2022-11-03T08:57:51.838Z,14.30
2022-11-03T09:00:20.379Z,14.40
2022-11-03T09:02:48.551Z,14.40
2022-11-03T09:05:18.906Z,14.40
2022-11-03T09:10:41.384Z,14.60
2022-11-03T09:13:10.840Z,14.90
2022-11-03T09:15:40.307Z,15.00
2022-11-03T09:18:08.590Z,15.10
2022-11-03T09:20:36.797Z,14.90
2022-11-03T09:23:05.338Z,15.00
2022-11-03T09:25:33.344Z,15.20
2022-11-03T09:28:03.666Z,14.90
2022-11-03T09:30:35.049Z,15.00
2022-11-03T09:33:03.851Z,15.20
2022-11-03T09:35:32.201Z,15.10
2022-11-03T09:38:00.198Z,15.10
2022-11-03T09:40:28.290Z,15.30
2022-11-03T09:42:57.890Z,15.50
2022-11-03T09:45:28.027Z,15.10
2022-11-03T09:47:56.478Z,15.20
2022-11-03T09:50:24.692Z,15.20
2022-11-03T09:52:55.180Z,15.10
2022-11-03T09:55:26.705Z,15.30
2022-11-03T09:57:56.816Z,15.20
2022-11-03T10:00:28.570Z,15.40
2022-11-03T10:02:57.933Z,15.50
2022-11-03T10:05:27.561Z,15.50
2022-11-03T10:08:01.348Z,15.70
2022-11-03T10:10:30.484Z,15.80
2022-11-03T10:12:58.904Z,15.90
2022-11-03T10:15:28.990Z,15.80
2022-11-03T10:17:58.232Z,15.80
2022-11-03T10:20:26.400Z,15.90
2022-11-03T10:22:56.210Z,15.70
2022-11-03T10:25:36.937Z,15.70
2022-11-03T10:28:20.489Z,15.80
2022-11-03T10:31:12.728Z,15.60
2022-11-03T10:33:51.664Z,15.60
2022-11-03T10:36:28.074Z,15.50
2022-11-03T10:38:56.453Z,15.70
2022-11-03T10:41:26.207Z,15.90
2022-11-03T10:44:03.565Z,15.90
2022-11-03T10:46:50.202Z,16.00
2022-11-03T10:49:21.389Z,16.00
2022-11-03T10:51:52.432Z,16.10
2022-11-03T10:54:23.537Z,15.90
2022-11-03T10:56:53.361Z,16.10
2022-11-03T10:59:26.082Z,16.20
2022-11-03T11:01:56.508Z,16.20
2022-11-03T11:04:25.052Z,16.30
2022-11-03T11:06:56.395Z,16.50
2022-11-03T11:09:26.872Z,16.40
2022-11-03T11:12:04.164Z,16.40
2022-11-03T11:14:39.759Z,16.10
2022-11-03T11:17:43.102Z,16.10
2022-11-03T11:20:32.734Z,16.30
2022-11-03T11:23:50.481Z,16.30
2022-11-03T11:26:33.960Z,16.50
2022-11-03T11:29:35.876Z,16.40
2022-11-03T11:34:59.417Z,16.30
2022-11-03T11:37:36.121Z,16.30
2022-11-03T11:40:13.105Z,16.40
2022-11-03T11:43:14.453Z,17.00
2022-11-03T11:46:20.684Z,17.80
2022-11-03T11:48:52.144Z,18.80
2022-11-03T11:51:22.704Z,19.70
2022-11-03T11:54:16.249Z,20.00
2022-11-03T11:56:43.648Z,20.10
2022-11-03T11:59:24.270Z,21.00
2022-11-03T12:01:55.926Z,21.50
2022-11-03T12:04:27.501Z,21.70
2022-11-03T12:06:59.477Z,22.50
2022-11-03T12:09:28.859Z,23.50
2022-11-03T12:12:04.963Z,24.10
2022-11-03T12:14:38.531Z,24.40
2022-11-03T12:17:37.984Z,24.40
2022-11-03T12:20:36.895Z,24.70
2022-11-03T12:23:07.005Z,24.10
2022-11-03T12:25:40.424Z,22.80
2022-11-03T12:28:08.994Z,23.60
2022-11-03T12:30:40.035Z,23.90
2022-11-03T12:33:10.439Z,22.50
2022-11-03T12:35:39.591Z,22.60
2022-11-03T12:38:08.940Z,22.00
2022-11-03T12:40:36.961Z,22.20
2022-11-03T12:43:05.250Z,22.40
2022-11-03T12:45:34.644Z,22.20
2022-11-03T12:48:03.229Z,22.30
2022-11-03T12:50:31.232Z,22.20
2022-11-03T12:53:00.062Z,21.60
2022-11-03T12:55:29.869Z,21.30
2022-11-03T12:57:57.867Z,20.70
2022-11-03T13:00:26.061Z,20.40
2022-11-03T13:02:54.424Z,20.90
2022-11-03T13:05:22.532Z,21.00
2022-11-03T13:07:54.491Z,21.40
2022-11-03T13:10:22.539Z,22.20
2022-11-03T13:12:52.272Z,23.20
2022-11-03T13:15:20.286Z,22.50
2022-11-03T13:18:12.247Z,22.10
2022-11-03T13:20:37.216Z,21.70
2022-11-03T13:23:08.062Z,22.10
2022-11-03T13:25:36.496Z,21.10
2022-11-03T13:28:06.150Z,21.10
2022-11-03T13:30:35.020Z,20.80
2022-11-03T13:33:02.999Z,20.60
2022-11-03T13:35:31.443Z,19.90
2022-11-03T13:37:59.577Z,19.60
2022-11-03T13:40:56.217Z,19.20
2022-11-03T13:43:17.900Z,19.20
2022-11-03T13:45:45.996Z,18.70
2022-11-03T13:51:03.979Z,18.50
2022-11-03T13:56:22.094Z,18.60
2022-11-03T14:01:41.563Z,18.00
2022-11-03T14:06:59.049Z,17.70
2022-11-03T14:09:27.108Z,17.70
2022-11-03T14:12:13.189Z,17.70
2022-11-03T14:14:43.221Z,17.60
2022-11-03T14:17:12.370Z,17.60
2022-11-03T14:19:46.036Z,17.50
2022-11-03T14:22:17.993Z,17.70
2022-11-03T14:24:46.093Z,17.60
2022-11-03T14:27:15.691Z,17.70
2022-11-03T14:29:45.781Z,17.70
2022-11-03T14:32:14.059Z,17.60
2022-11-03T14:34:43.074Z,17.50
2022-11-03T14:37:13.757Z,17.60
2022-11-03T14:39:42.202Z,17.70
2022-11-03T14:42:15.730Z,17.80
2022-11-03T14:44:47.262Z,17.50
2022-11-03T14:47:18.801Z,17.50
2022-11-03T14:49:47.373Z,17.20
2022-11-03T14:52:16.959Z,17.20
2022-11-03T14:54:46.053Z,17.30
2022-11-03T14:57:14.088Z,17.40
2022-11-03T14:59:43.102Z,17.30
2022-11-03T15:02:12.645Z,17.20
2022-11-03T15:04:44.280Z,17.20
2022-11-03T15:07:14.521Z,17.20
2022-11-03T15:09:45.146Z,17.10
2022-11-03T15:12:13.141Z,17.20
2022-11-03T15:14:41.096Z,17.20
2022-11-03T15:17:11.940Z,17.20
2022-11-03T15:19:41.883Z,17.20
2022-11-03T15:22:10.013Z,17.20
2022-11-03T15:27:27.290Z,16.90
2022-11-03T15:29:57.540Z,17.00
2022-11-03T15:32:30.409Z,16.90
2022-11-03T15:35:03.920Z,17.10
2022-11-03T15:37:33.030Z,17.10
2022-11-03T15:40:01.041Z,17.10
2022-11-03T15:42:30.876Z,16.70
2022-11-03T15:44:58.897Z,16.60
2022-11-03T15:47:27.358Z,16.30
2022-11-03T15:49:57.034Z,16.30
2022-11-03T15:52:26.434Z,16.30
2022-11-03T15:54:55.058Z,16.20
2022-11-03T15:57:23.068Z,15.90
2022-11-03T15:59:53.853Z,15.80
2022-11-03T16:02:40.870Z,15.70
2022-11-03T16:05:10.777Z,15.40
2022-11-03T16:07:42.322Z,15.30
2022-11-03T16:10:10.853Z,15.50
2022-11-03T16:12:38.848Z,15.70
2022-11-03T16:15:08.368Z,15.70
2022-11-03T16:17:39.102Z,15.30
2022-11-03T16:20:11.873Z,15.40
2022-11-03T16:22:41.611Z,15.50
2022-11-03T16:25:12.915Z,15.70
2022-11-03T16:27:42.933Z,15.30
2022-11-03T16:30:12.953Z,15.30
2022-11-03T16:32:40.945Z,15.00
2022-11-03T16:35:09.899Z,15.10
2022-11-03T16:37:38.376Z,15.30
2022-11-03T16:40:12.509Z,15.40
2022-11-03T16:42:45.116Z,15.40
2022-11-03T16:45:19.099Z,15.30
2022-11-03T16:47:49.080Z,15.40
2022-11-03T16:50:17.629Z,15.30
2022-11-03T16:52:46.590Z,15.10
2022-11-03T16:55:17.637Z,15.00
2022-11-03T16:57:46.505Z,14.70
2022-11-03T17:00:19.129Z,14.90
2022-11-03T17:02:47.825Z,14.80
2022-11-03T17:05:18.014Z,14.90
2022-11-03T17:07:51.750Z,14.90
2022-11-03T17:10:24.623Z,14.90
2022-11-03T17:12:53.013Z,14.80
2022-11-03T17:15:22.133Z,15.00
2022-11-03T17:17:50.391Z,15.00
2022-11-03T17:20:19.160Z,15.30
2022-11-03T17:22:49.014Z,15.30
2022-11-03T17:25:17.106Z,15.40
2022-11-03T17:27:49.488Z,15.50
2022-11-03T17:30:22.368Z,15.70
2022-11-03T17:32:53.123Z,15.30
2022-11-03T17:35:24.427Z,15.10
2022-11-03T17:37:55.108Z,15.40
2022-11-03T17:40:25.472Z,15.60
2022-11-03T17:42:55.427Z,15.80
2022-11-03T17:45:25.622Z,15.50
2022-11-03T17:47:54.089Z,15.60
2022-11-03T17:50:24.021Z,15.70
2022-11-03T17:52:54.389Z,15.70
2022-11-03T17:55:29.068Z,15.80
2022-11-03T17:58:01.059Z,15.70
2022-11-03T18:00:30.396Z,15.70
2022-11-03T18:02:58.605Z,15.50
2022-11-03T18:05:30.482Z,15.30
2022-11-03T18:08:00.519Z,15.10
2022-11-03T18:10:31.889Z,15.00
2022-11-03T18:13:19.109Z,15.10
2022-11-03T18:15:49.545Z,15.20
2022-11-03T18:18:22.185Z,15.10
2022-11-03T18:20:53.653Z,14.80
2022-11-03T18:23:25.146Z,15.00
2022-11-03T18:25:54.347Z,14.70
2022-11-03T18:28:24.777Z,14.70
2022-11-03T18:30:55.871Z,14.80
2022-11-03T18:33:29.093Z,15.00
2022-11-03T18:35:58.119Z,15.00
2022-11-03T18:38:27.497Z,14.90
2022-11-03T18:40:56.066Z,15.20
2022-11-03T18:43:28.571Z,15.10
2022-11-03T18:45:57.247Z,15.30
2022-11-03T18:48:25.524Z,15.50
2022-11-03T18:50:55.895Z,15.40
2022-11-03T18:53:26.726Z,15.30
2022-11-03T18:55:58.564Z,15.40
2022-11-03T18:58:28.646Z,15.50
2022-11-03T19:00:56.912Z,15.50
2022-11-03T19:03:25.157Z,15.40
2022-11-03T19:05:54.731Z,15.20
2022-11-03T19:08:26.877Z,15.00
2022-11-03T19:10:56.926Z,14.60
2022-11-03T19:13:34.145Z,14.50
2022-11-03T19:16:04.904Z,14.50
2022-11-03T19:18:36.885Z,14.60
2022-11-03T19:21:11.727Z,14.70
2022-11-03T19:23:39.933Z,14.70
2022-11-03T19:26:17.081Z,15.00
2022-11-03T19:28:48.634Z,14.80
2022-11-03T19:31:22.519Z,14.50
2022-11-03T19:33:54.102Z,14.40
2022-11-03T19:36:22.205Z,14.50
2022-11-03T19:38:51.358Z,14.30
2022-11-03T19:41:37.448Z,14.30
2022-11-03T19:44:11.466Z,14.20
2022-11-03T19:46:40.058Z,14.10
2022-11-03T19:49:14.939Z,14.20
2022-11-03T19:51:43.102Z,14.30
2022-11-03T19:54:17.776Z,13.90
2022-11-03T19:56:46.542Z,14.10
2022-11-03T19:59:17.888Z,14.40
2022-11-03T20:01:46.053Z,14.10
2022-11-03T20:04:14.326Z,14.30
2022-11-03T20:06:42.451Z,14.20
2022-11-03T20:09:16.577Z,14.60
2022-11-03T20:11:46.110Z,14.30
2022-11-03T20:14:20.198Z,14.30
2022-11-03T20:16:48.703Z,14.50
2022-11-03T20:19:16.711Z,14.80
2022-11-03T20:21:45.513Z,14.70
2022-11-03T20:24:17.102Z,14.30
2022-11-03T20:26:45.208Z,14.20
2022-11-03T20:29:14.865Z,14.30
2022-11-03T20:31:46.533Z,14.60
2022-11-03T20:34:15.562Z,14.70
2022-11-03T20:36:44.658Z,14.70
2022-11-03T20:39:15.227Z,14.70
2022-11-03T20:41:46.770Z,14.70
2022-11-03T20:44:15.454Z,14.50
2022-11-03T20:46:45.660Z,14.50
2022-11-03T20:49:13.786Z,14.40
2022-11-03T20:51:43.693Z,14.30
2022-11-03T20:54:16.693Z,14.40
2022-11-03T20:56:46.177Z,14.10
2022-11-03T20:59:16.778Z,14.20
2022-11-03T21:01:46.705Z,14.40
2022-11-03T21:04:17.366Z,14.30
2022-11-03T21:06:46.762Z,14.40
2022-11-03T21:09:17.528Z,14.60
2022-11-03T21:11:47.127Z,14.50
2022-11-03T21:14:19.043Z,14.60
2022-11-03T21:17:06.168Z,14.60
2022-11-03T21:20:06.046Z,14.50
2022-11-03T21:22:51.997Z,14.00
2022-11-03T21:25:22.131Z,14.30
2022-11-03T21:27:50.732Z,14.30
2022-11-03T21:30:21.477Z,14.40
2022-11-03T21:32:51.598Z,14.40
2022-11-03T21:35:21.784Z,13.90
2022-11-03T21:37:50.250Z,14.20
2022-11-03T21:40:18.943Z,14.50
2022-11-03T21:43:05.153Z,14.50
2022-11-03T21:45:34.471Z,14.40
2022-11-03T21:48:22.078Z,14.40
2022-11-03T21:50:50.766Z,13.90
2022-11-03T21:53:18.875Z,13.90
2022-11-03T21:55:49.686Z,14.00
2022-11-03T21:58:17.862Z,14.30
2022-11-03T22:00:47.061Z,14.40
2022-11-03T22:03:18.315Z,14.60
2022-11-03T22:05:46.353Z,14.50
2022-11-03T22:08:14.535Z,14.50
2022-11-03T22:10:42.536Z,14.40
2022-11-03T22:13:11.869Z,14.60
2022-11-03T22:15:57.554Z,14.90
2022-11-03T22:18:30.104Z,15.00
2022-11-03T22:21:16.677Z,14.90
2022-11-03T22:24:02.284Z,15.00
2022-11-03T22:26:47.721Z,14.80
2022-11-03T22:29:33.191Z,14.70
2022-11-03T22:32:01.232Z,14.50
2022-11-03T22:34:48.216Z,14.70
2022-11-03T22:37:16.295Z,14.70
2022-11-03T22:40:02.237Z,14.40
2022-11-03T22:42:48.132Z,14.70
2022-11-03T22:45:35.995Z,15.00
2022-11-03T22:48:04.650Z,14.60
2022-11-03T22:50:34.157Z,14.30
2022-11-03T22:53:22.914Z,14.30
2022-11-03T22:55:52.317Z,14.20
2022-11-03T22:58:20.878Z,14.10
2022-11-03T23:00:48.979Z,14.50
2022-11-03T23:03:19.493Z,14.60
2022-11-03T23:05:51.537Z,14.60
2022-11-03T23:08:20.444Z,14.50
2022-11-03T23:10:48.888Z,14.20
2022-11-03T23:13:16.913Z,13.80
2022-11-03T23:15:44.879Z,14.10
2022-11-03T23:18:31.457Z,14.00
2022-11-03T23:21:09.724Z,14.00
2022-11-03T23:23:59.335Z,13.80
2022-11-03T23:26:28.387Z,13.60
2022-11-03T23:28:56.375Z,13.40
2022-11-03T23:31:24.559Z,13.20
2022-11-03T23:33:52.791Z,13.00
2022-11-03T23:36:22.565Z,13.00
2022-11-03T23:38:50.530Z,13.10
2022-11-03T23:41:20.156Z,13.00
2022-11-03T23:43:52.505Z,12.80
2022-11-03T23:46:41.101Z,12.80
2022-11-03T23:49:09.966Z,12.90
2022-11-03T23:51:39.753Z,13.00
2022-11-03T23:54:11.328Z,12.90
2022-11-03T23:56:59.458Z,13.00
2022-11-03T23:59:28.480Z,13.10
